Pagrindinis puslapis
METAR-TAF:

METAR-TAF

Oro uostai :

Ilam, Iranas

platuma: 33-35-09N, ilguma: 046-24-20E, Aukštis: 1334 m

Dabartinis oras

Ataskaita buvo paskelbta 33 minutes, ne 11:00 UTC
Vėjas 6 kt iš Vakarų/Pietvakarių
Temperatūra 29°C
Drėgmė 13%
Slėgis 1025 hPa
Matomumas 10 km arba daugiau
Mažai debesys ne aukštis 4500 ft

METAR: OICI 141100Z 25006KT 9999 FEW045 29/M02 Q1024 A3027

Laikas: 15:03 (11:33 UTC)

Prognozė

Ataskaita buvo paskelbta 6 valandos ir 3 minutes, ne 05:30 UTC
Prognozė galioja nuo 14 metu 06 UTC su 15 metu 12 UTC
Vėjas 8 kt iš Vakarų
Matomumas: 8000 m
Laikinai
nuo 14 metu 09 UTC su 14 metu 15 UTC
Vėjas 14 kt iš Vakarų

TAF: OICI 140530Z 1406/1512 27008KT 8000 NSC TEMPO 1409/1415 26014KT

Orai ataskaitas ir orų prognozės (METAR, TAF).

turimą stotys yra geltonos ir raudonos taškus žemėlapyje.

Perkelti pele per norėdami pamatyti stoties vardą.

Tada spustelėkite, norėdami matyti oro stebėjimo ir prognozės.

Norėdami pakeisti žemėlapį: spustelėkite ant žalios mygtukų su juodo kryžiaus žemyn,; žalią mygtuką su brūkšneliu, jei norite nutolinti; arba žalių rodyklių gretimoms žemėlapius.


METAR-TAF: